Time;durP1;ratioP1;P1;durP2;ratioP2;P2;SDS_P1;SDS_P2;PMS_P1;PMS_P2;Temp;Humidity;BMP_temperature;BMP_pressure;BME280_temperature;BME280_humidity;BME280_pressure;Samples;Min_cycle;Max_cycle;Signal;HPM_P1;HPM_P2
2022/06/27 00:00:00;;;;;;;1.65;0.90;;;;;;;16.53;100.00;95456.72;4915834;29;20206;-83
2022/06/27 00:02:25;;;;;;;1.33;0.82;;;;;;;16.59;100.00;95456.75;4915039;29;20183;-83
2022/06/27 00:04:51;;;;;;;1.00;0.80;;;;;;;16.54;100.00;95495.03;4912406;29;20190;-83
2022/06/27 00:07:17;;;;;;;1.73;0.80;;;;;;;16.60;100.00;95496.88;4901677;29;20194;-83
2022/06/27 00:09:42;;;;;;;1.27;0.90;;;;;;;16.68;100.00;95484.50;4922192;29;20225;-83
2022/06/27 00:12:08;;;;;;;1.38;0.90;;;;;;;16.59;100.00;95495.28;4898710;29;20300;-83
2022/06/27 00:14:34;;;;;;;2.78;1.00;;;;;;;16.53;100.00;95512.56;4932886;29;20179;-83
2022/06/27 00:16:59;;;;;;;2.83;1.20;;;;;;;16.72;100.00;95547.09;4917241;29;20186;-83
2022/06/27 00:19:24;;;;;;;1.27;0.70;;;;;;;16.82;100.00;95584.31;4903730;29;20206;-84
2022/06/27 00:21:50;;;;;;;4.25;0.80;;;;;;;16.70;100.00;95591.84;4888587;29;20190;-84
2022/06/27 00:24:15;;;;;;;4.25;1.30;;;;;;;16.67;100.00;95621.81;4913646;29;20193;-84
2022/06/27 00:26:40;;;;;;;6.00;1.00;;;;;;;16.74;100.00;95655.22;4901715;29;20190;-84
2022/06/27 00:29:06;;;;;;;1.90;0.88;;;;;;;16.51;100.00;95689.34;4903385;29;20187;-84
2022/06/27 00:31:31;;;;;;;2.35;1.27;;;;;;;16.31;100.00;95694.31;4885685;29;20190;-83
2022/06/27 00:33:56;;;;;;;1.17;0.88;;;;;;;16.48;100.00;95680.06;4901439;29;20213;-83
2022/06/27 00:36:22;;;;;;;3.85;1.13;;;;;;;16.50;100.00;95630.88;4916230;29;20699;-83
2022/06/27 00:38:47;;;;;;;1.05;0.82;;;;;;;16.05;100.00;95576.84;4910349;29;20198;-83
2022/06/27 00:41:12;;;;;;;4.63;1.13;;;;;;;16.20;100.00;95576.88;4900215;29;20198;-83
2022/06/27 00:43:38;;;;;;;2.28;1.00;;;;;;;16.13;100.00;95568.91;4896062;29;20180;-83
2022/06/27 00:46:03;;;;;;;2.50;0.80;;;;;;;16.07;100.00;95596.63;4921604;29;20655;-82
2022/06/27 00:48:28;;;;;;;1.17;0.85;;;;;;;16.29;100.00;95630.81;4893032;29;20198;-82
2022/06/27 00:50:56;;;;;;;1.58;1.10;;;;;;;16.39;100.00;95623.47;4899979;29;20207;-83
2022/06/27 00:53:22;;;;;;;1.27;0.70;;;;;;;16.53;100.00;95587.78;4892407;29;20211;-83
2022/06/27 00:55:47;;;;;;;1.38;0.50;;;;;;;16.49;100.00;95548.00;4912237;29;20236;-83
2022/06/27 00:58:12;;;;;;;5.65;0.85;;;;;;;16.01;100.00;95476.88;4891403;29;20193;-83
2022/06/27 01:00:38;;;;;;;1.02;0.68;;;;;;;15.98;100.00;95430.09;4899744;29;20547;-83
2022/06/27 01:03:03;;;;;;;5.30;1.20;;;;;;;15.47;100.00;95293.16;4900079;29;20655;-83
2022/06/27 01:05:28;;;;;;;427.53;19.90;;;;;;;15.08;100.00;95210.59;4905878;29;20669;-83
2022/06/27 01:07:54;;;;;;;65.43;3.97;;;;;;;15.10;100.00;95260.91;4903143;29;20197;-84
2022/06/27 01:10:19;;;;;;;1.67;1.03;;;;;;;15.28;100.00;95284.06;4912207;29;20277;-83
2022/06/27 01:12:45;;;;;;;2.73;0.93;;;;;;;15.51;100.00;95324.00;4930403;29;20210;-84
2022/06/27 01:15:11;;;;;;;2.33;1.10;;;;;;;15.48;100.00;95363.63;4903802;29;20202;-83
2022/06/27 01:17:37;;;;;;;1.10;0.70;;;;;;;15.62;100.00;95346.28;4902548;29;20221;-83
2022/06/27 01:20:03;;;;;;;2.70;1.02;;;;;;;15.84;100.00;95363.69;4913885;29;20267;-84
2022/06/27 01:22:28;;;;;;;1.67;1.00;;;;;;;15.88;100.00;95389.47;4883914;29;20193;-84
2022/06/27 01:24:54;;;;;;;3.33;1.30;;;;;;;15.91;100.00;95389.94;4899705;29;20179;-84
2022/06/27 01:27:19;;;;;;;2.97;1.00;;;;;;;15.86;100.00;95381.81;4883725;29;20179;-83
2022/06/27 01:29:44;;;;;;;1.67;0.90;;;;;;;15.92;100.00;95361.94;4915064;29;20206;-84
2022/06/27 01:32:10;;;;;;;3.00;1.23;;;;;;;16.06;100.00;95361.88;4917785;29;20694;-83
2022/06/27 01:34:36;;;;;;;1.80;1.00;;;;;;;15.91;100.00;95389.13;4917965;29;20213;-84
2022/06/27 01:37:02;;;;;;;1.92;1.10;;;;;;;15.99;100.00;95391.63;4885850;29;20809;-84
2022/06/27 01:39:28;;;;;;;1.92;1.20;;;;;;;16.04;100.00;95382.22;4902042;29;20273;-84
2022/06/27 01:41:55;;;;;;;2.47;1.00;;;;;;;16.13;100.00;95409.94;4886096;29;20210;-84
2022/06/27 01:44:23;;;;;;;2.88;0.80;;;;;;;16.15;100.00;95433.31;4882766;29;20193;-84
2022/06/27 01:46:59;;;;;;;2.00;0.90;;;;;;;16.14;100.00;95431.69;4898480;29;20182;-84
2022/06/27 01:49:24;;;;;;;2.63;0.85;;;;;;;16.18;100.00;95429.53;4898775;29;20254;-83
2022/06/27 01:51:50;;;;;;;2.20;0.85;;;;;;;16.13;100.00;95433.50;4894980;29;20297;-83
2022/06/27 01:54:20;;;;;;;2.58;0.98;;;;;;;16.28;100.00;95427.41;4898383;29;20190;-84
2022/06/27 01:56:46;;;;;;;1.23;0.75;;;;;;;16.28;100.00;95415.13;4910789;29;20194;-84
2022/06/27 01:59:13;;;;;;;1.05;0.80;;;;;;;16.27;100.00;95412.69;4901804;29;20186;-83
2022/06/27 02:01:42;;;;;;;1.27;1.10;;;;;;;16.34;100.00;95410.94;4905197;29;20689;-83
2022/06/27 02:04:08;;;;;;;2.22;1.00;;;;;;;16.32;100.00;95418.19;4898390;29;20212;-84
2022/06/27 02:06:33;;;;;;;2.83;1.02;;;;;;;16.35;100.00;95421.25;4899562;29;20207;-84
2022/06/27 02:09:03;;;;;;;4.28;1.00;;;;;;;16.31;100.00;95427.84;4914147;29;20209;-82
2022/06/27 02:11:29;;;;;;;3.63;1.10;;;;;;;16.18;100.00;95424.28;4907778;29;20190;-82
2022/06/27 02:13:55;;;;;;;2.55;0.90;;;;;;;16.32;100.00;95410.31;4901597;29;20190;-81
2022/06/27 02:16:21;;;;;;;2.33;0.80;;;;;;;16.33;100.00;95402.25;4913019;29;20213;-81
2022/06/27 02:18:47;;;;;;;1.98;0.70;;;;;;;16.35;100.00;95417.81;4906162;29;20651;-82
2022/06/27 02:21:23;;;;;;;1.67;0.90;;;;;;;16.28;100.00;95417.75;4898371;29;20222;-81
2022/06/27 02:23:49;;;;;;;2.35;0.93;;;;;;;16.35;100.00;95407.34;4897673;29;20178;-82
2022/06/27 02:26:15;;;;;;;2.40;0.98;;;;;;;16.20;100.00;95409.19;4896024;29;20269;-82
2022/06/27 02:28:41;;;;;;;2.45;1.38;;;;;;;16.23;100.00;95419.28;4898506;29;20643;-83
2022/06/27 02:31:08;;;;;;;1.55;0.90;;;;;;;16.24;100.00;95420.91;4911743;29;20209;-82
2022/06/27 02:33:42;;;;;;;2.20;0.90;;;;;;;16.26;100.00;95418.94;4901292;29;20220;-82
2022/06/27 02:36:10;;;;;;;1.60;0.73;;;;;;;16.31;100.00;95420.00;4888229;29;20182;-81
2022/06/27 02:38:36;;;;;;;1.92;0.90;;;;;;;16.31;100.00;95412.13;4912751;29;20193;-82
2022/06/27 02:41:04;;;;;;;1.83;0.90;;;;;;;16.33;100.00;95415.38;4901701;29;20201;-82
2022/06/27 02:43:32;;;;;;;2.58;1.23;;;;;;;16.31;100.00;95403.47;4906198;29;20186;-82
2022/06/27 02:45:58;;;;;;;1.67;0.90;;;;;;;16.26;100.00;95398.78;4882631;29;20183;-83
2022/06/27 02:48:24;;;;;;;3.13;1.00;;;;;;;16.21;100.00;95395.91;4928609;29;20218;-83
2022/06/27 02:50:52;;;;;;;2.58;0.93;;;;;;;16.18;100.00;95392.84;4930231;29;20576;-82
2022/06/27 02:53:19;;;;;;;0.93;0.80;;;;;;;16.00;100.00;95390.66;4908839;29;20210;-83
2022/06/27 02:55:45;;;;;;;2.22;0.88;;;;;;;16.08;100.00;95398.41;4905269;29;20186;-82
2022/06/27 02:58:31;;;;;;;1.75;1.00;;;;;;;16.01;100.00;95406.19;4900518;29;20183;-83
2022/06/27 03:00:56;;;;;;;3.58;0.95;;;;;;;16.02;100.00;95389.47;4935482;29;20213;-82
2022/06/27 03:03:24;;;;;;;1.70;0.98;;;;;;;16.05;100.00;95386.47;4898030;29;20171;-82
2022/06/27 03:06:06;;;;;;;2.25;0.93;;;;;;;16.16;100.00;95385.16;4898517;29;20287;-83
2022/06/27 03:08:43;;;;;;;1.23;0.90;;;;;;;16.18;100.00;95385.81;4902208;29;20526;-83
2022/06/27 03:11:14;;;;;;;1.98;0.80;;;;;;;16.14;100.00;95382.72;4900553;29;20693;-83
2022/06/27 03:13:39;;;;;;;1.38;0.85;;;;;;;16.19;100.00;95376.13;4898139;29;20216;-84
2022/06/27 03:16:05;;;;;;;1.88;1.02;;;;;;;16.17;100.00;95372.88;4897710;29;20182;-83
2022/06/27 03:18:30;;;;;;;1.75;0.88;;;;;;;16.05;100.00;95375.19;4914145;29;20218;-83
2022/06/27 03:20:56;;;;;;;2.67;0.90;;;;;;;16.06;100.00;95361.06;4883652;29;20206;-83
2022/06/27 03:23:21;;;;;;;2.83;0.98;;;;;;;15.94;100.00;95362.56;4914794;29;20182;-83
2022/06/27 03:25:47;;;;;;;2.00;1.05;;;;;;;15.83;100.00;95372.53;4900571;29;20197;-83
2022/06/27 03:28:12;;;;;;;4.00;1.20;;;;;;;15.86;100.00;95390.47;4886328;29;20231;-83
2022/06/27 03:30:37;;;;;;;1.52;1.10;;;;;;;15.93;100.00;95408.09;4883376;29;20211;-83
2022/06/27 03:33:03;;;;;;;1.70;1.25;;;;;;;15.89;100.00;95401.56;4913717;29;20215;-83
2022/06/27 03:35:28;;;;;;;1.55;1.30;;;;;;;15.88;100.00;95385.06;4926182;29;20193;-83
2022/06/27 03:37:53;;;;;;;1.92;1.50;;;;;;;15.90;100.00;95377.81;4885671;29;20210;-82
2022/06/27 03:40:19;;;;;;;1.52;1.25;;;;;;;15.94;100.00;95368.63;4902092;29;20202;-82
2022/06/27 03:42:44;;;;;;;2.50;1.35;;;;;;;16.00;100.00;95370.50;4932802;29;20225;-82
2022/06/27 03:45:10;;;;;;;3.80;1.33;;;;;;;15.84;100.00;95363.69;4917569;29;20178;-82
2022/06/27 03:47:58;;;;;;;2.00;1.30;;;;;;;15.96;100.00;95361.38;4929048;28;20197;-84
2022/06/27 03:50:24;;;;;;;1.37;1.17;;;;;;;16.03;100.00;95385.84;4933838;29;20293;-83
2022/06/27 03:52:50;;;;;;;1.48;1.00;;;;;;;16.04;100.00;95390.09;4908504;29;20217;-84
2022/06/27 03:55:16;;;;;;;1.77;1.10;;;;;;;16.07;100.00;95384.47;4935203;29;20174;-83
2022/06/27 03:58:07;;;;;;;3.25;1.05;;;;;;;16.08;100.00;95375.63;4892169;29;20201;-84
2022/06/27 04:00:33;;;;;;;5.68;1.35;;;;;;;16.06;100.00;95364.50;4929587;29;20229;-81
2022/06/27 04:02:59;;;;;;;1.67;1.20;;;;;;;16.12;100.00;95368.19;4933175;29;20186;-82
2022/06/27 04:05:24;;;;;;;1.38;1.02;;;;;;;16.12;100.00;95370.81;4915989;29;20190;-83
2022/06/27 04:07:50;;;;;;;1.50;1.27;;;;;;;16.00;100.00;95373.13;4904966;29;20194;-82
2022/06/27 04:10:15;;;;;;;3.83;1.48;;;;;;;16.18;100.00;95380.56;4921789;29;20212;-83
2022/06/27 04:12:41;;;;;;;1.65;0.93;;;;;;;16.22;100.00;95375.75;4904619;29;20197;-83
2022/06/27 04:15:06;;;;;;;1.85;1.10;;;;;;;16.21;100.00;95376.75;4904909;29;20185;-83
2022/06/27 04:17:32;;;;;;;2.42;1.02;;;;;;;16.22;100.00;95360.03;4918608;29;20197;-82
2022/06/27 04:19:57;;;;;;;2.13;1.00;;;;;;;16.36;100.00;95331.16;4895270;29;20206;-84
2022/06/27 04:22:23;;;;;;;1.27;1.05;;;;;;;16.45;100.00;95323.97;4913135;29;20197;-82
2022/06/27 04:24:48;;;;;;;3.80;1.38;;;;;;;16.47;100.00;95321.97;4903694;29;20178;-83
2022/06/27 04:27:17;;;;;;;2.97;1.25;;;;;;;16.51;100.00;95325.81;4906734;29;20246;-83
2022/06/27 04:29:43;;;;;;;2.70;1.15;;;;;;;16.47;100.00;95337.69;4917238;29;20579;-82
2022/06/27 04:32:09;;;;;;;2.92;1.02;;;;;;;16.60;100.00;95348.28;4932075;29;20199;-82
2022/06/27 04:34:35;;;;;;;2.30;1.05;;;;;;;16.45;100.00;95339.69;4932551;29;20174;-83
2022/06/27 04:37:01;;;;;;;2.10;1.20;;;;;;;16.48;100.00;95341.94;4914955;29;20186;-83
2022/06/27 04:39:26;;;;;;;3.38;1.55;;;;;;;16.31;100.00;95358.91;4918604;29;20313;-84
2022/06/27 04:41:52;;;;;;;2.47;1.08;;;;;;;16.57;100.00;95377.50;4931707;29;20647;-82
2022/06/27 04:44:20;;;;;;;1.83;0.90;;;;;;;16.64;100.00;95386.22;4912514;29;20189;-85
2022/06/27 04:46:48;;;;;;;2.17;1.15;;;;;;;16.73;100.00;95404.50;4931429;29;20238;-86
2022/06/27 04:49:15;;;;;;;1.42;1.05;;;;;;;16.72;100.00;95398.44;4955501;28;20183;-85
2022/06/27 04:51:41;;;;;;;1.65;1.10;;;;;;;16.84;100.00;95415.25;4924986;28;20339;-86
2022/06/27 04:54:07;;;;;;;1.38;1.13;;;;;;;16.87;100.00;95428.03;4939860;28;20175;-84
2022/06/27 04:56:33;;;;;;;2.35;1.50;;;;;;;16.99;100.00;95434.38;4902607;29;20599;-83
2022/06/27 04:58:58;;;;;;;1.15;0.80;;;;;;;16.95;100.00;95434.91;4886393;29;20178;-84
2022/06/27 05:01:34;;;;;;;1.00;0.90;;;;;;;17.07;100.00;95430.78;4901826;29;20567;-88
2022/06/27 05:04:00;;;;;;;2.10;1.30;;;;;;;17.02;100.00;95425.28;4916656;29;20190;-83
2022/06/27 05:06:25;;;;;;;2.65;1.10;;;;;;;17.07;100.00;95432.59;4887040;29;20196;-82
2022/06/27 05:08:52;;;;;;;3.45;1.10;;;;;;;17.07;100.00;95435.22;4903897;29;20201;-83
2022/06/27 05:11:17;;;;;;;2.70;1.20;;;;;;;17.09;100.00;95438.47;4905918;29;20202;-83
2022/06/27 05:13:42;;;;;;;2.50;1.15;;;;;;;17.06;100.00;95442.28;4924277;29;20214;-83
2022/06/27 05:16:08;;;;;;;2.63;1.20;;;;;;;17.11;100.00;95458.25;4907592;29;20557;-82
2022/06/27 05:18:33;;;;;;;3.17;1.65;;;;;;;17.16;100.00;95457.69;4923223;29;20183;-83
2022/06/27 05:20:59;;;;;;;3.13;1.20;;;;;;;17.15;100.00;95467.38;4913183;29;20220;-85
2022/06/27 05:23:24;;;;;;;3.70;1.30;;;;;;;17.12;100.00;95482.69;4886051;29;20189;-85
2022/06/27 05:25:49;;;;;;;2.42;1.27;;;;;;;17.09;100.00;95483.88;4913174;29;20191;-85
2022/06/27 05:28:15;;;;;;;1.90;1.35;;;;;;;17.00;100.00;95469.28;4895521;29;20201;-85
2022/06/27 05:30:40;;;;;;;2.00;1.35;;;;;;;16.93;100.00;95461.34;4901623;29;20210;-84
2022/06/27 05:33:05;;;;;;;1.38;1.27;;;;;;;17.10;100.00;95471.56;4889157;29;20206;-84
2022/06/27 05:35:31;;;;;;;2.10;1.30;;;;;;;17.13;100.00;95465.94;4904074;29;20178;-83
2022/06/27 05:37:57;;;;;;;2.25;1.63;;;;;;;17.10;100.00;95472.38;4913605;29;20239;-85
2022/06/27 05:40:22;;;;;;;3.13;1.38;;;;;;;17.12;100.00;95486.13;4931419;29;20286;-84
2022/06/27 05:42:53;;;;;;;3.13;1.30;;;;;;;17.11;100.00;95496.81;4914412;29;20185;-85
2022/06/27 05:45:18;;;;;;;1.30;1.15;;;;;;;17.02;100.00;95500.56;4917147;29;20238;-84
2022/06/27 05:47:44;;;;;;;1.17;1.08;;;;;;;17.06;100.00;95496.56;4916687;29;20615;-82
2022/06/27 05:50:09;;;;;;;2.67;1.30;;;;;;;16.98;100.00;95482.59;4902003;29;20202;-84
2022/06/27 05:52:35;;;;;;;2.35;1.23;;;;;;;16.95;100.00;95492.63;4895264;29;20209;-84
2022/06/27 05:55:01;;;;;;;3.25;1.10;;;;;;;16.95;100.00;95521.47;4900260;29;20671;-82
2022/06/27 05:57:28;;;;;;;3.58;1.90;;;;;;;16.86;100.00;95539.16;4902885;29;20217;-84
2022/06/27 05:59:54;;;;;;;2.33;1.30;;;;;;;16.84;100.00;95511.50;4913869;29;20202;-84
2022/06/27 06:02:21;;;;;;;2.00;1.00;;;;;;;16.88;100.00;95492.59;4889099;29;20180;-84
2022/06/27 06:04:46;;;;;;;0.93;0.85;;;;;;;16.88;100.00;95489.16;4901191;29;20583;-84
2022/06/27 06:07:12;;;;;;;1.23;1.00;;;;;;;16.90;100.00;95481.91;4912035;29;20192;-85
2022/06/27 06:09:38;;;;;;;1.80;0.90;;;;;;;16.84;100.00;95482.66;4900243;29;20203;-84
2022/06/27 06:12:04;;;;;;;2.85;1.15;;;;;;;16.99;100.00;95488.63;4888062;29;20194;-83
2022/06/27 06:14:29;;;;;;;1.30;0.95;;;;;;;17.04;100.00;95494.13;4909105;29;20177;-84
2022/06/27 06:16:55;;;;;;;1.17;1.10;;;;;;;17.05;100.00;95503.63;4894755;29;20185;-84
2022/06/27 06:19:20;;;;;;;1.55;1.00;;;;;;;17.11;100.00;95512.53;4905021;29;20201;-83
2022/06/27 06:21:45;;;;;;;4.20;1.30;;;;;;;17.18;100.00;95508.97;4899760;29;20660;-84
2022/06/27 06:24:11;;;;;;;1.20;1.10;;;;;;;17.02;100.00;95504.00;4884768;29;20186;-83
2022/06/27 06:26:36;;;;;;;2.45;1.25;;;;;;;17.03;100.00;95508.25;4903372;29;20216;-84
2022/06/27 06:29:12;;;;;;;1.70;1.30;;;;;;;17.08;100.00;95508.50;4915031;29;20922;-83
2022/06/27 06:31:41;;;;;;;1.30;1.20;;;;;;;17.07;100.00;95522.63;4912570;29;20547;-84
2022/06/27 06:34:07;;;;;;;2.20;1.40;;;;;;;17.14;100.00;95528.75;4919756;29;20182;-84
2022/06/27 06:36:33;;;;;;;1.63;1.27;;;;;;;17.19;100.00;95522.91;4893133;29;20693;-84
2022/06/27 06:39:01;;;;;;;1.67;1.25;;;;;;;17.25;100.00;95509.84;4897703;29;20194;-84
2022/06/27 06:41:26;;;;;;;4.10;1.00;;;;;;;17.32;100.00;95499.41;4904889;29;20242;-84
2022/06/27 06:43:52;;;;;;;3.00;1.30;;;;;;;17.58;100.00;95508.47;4897699;29;20183;-85
2022/06/27 06:46:17;;;;;;;1.52;1.20;;;;;;;17.91;100.00;95524.47;4896257;29;20480;-85
2022/06/27 06:48:43;;;;;;;1.73;1.25;;;;;;;18.09;100.00;95522.13;4901203;29;20191;-85
2022/06/27 06:51:08;;;;;;;1.08;0.98;;;;;;;18.45;98.04;95523.72;4915624;29;20208;-84
2022/06/27 06:53:36;;;;;;;1.45;0.98;;;;;;;18.73;95.32;95513.94;4906345;29;20562;-85
2022/06/27 06:56:01;;;;;;;1.30;1.20;;;;;;;18.76;95.02;95517.97;4894310;29;20194;-85
2022/06/27 06:58:27;;;;;;;1.17;0.82;;;;;;;18.71;95.51;95520.38;4891721;29;20231;-85
2022/06/27 07:00:54;;;;;;;1.08;0.98;;;;;;;18.65;96.22;95527.25;4892158;29;20210;-85
2022/06/27 07:03:20;;;;;;;0.98;0.90;;;;;;;18.61;95.82;95534.69;4915928;29;20190;-84
2022/06/27 07:05:46;;;;;;;1.25;0.90;;;;;;;18.41;95.46;95531.19;4914143;29;20254;-83
2022/06/27 07:08:12;;;;;;;0.70;0.70;;;;;;;18.45;95.05;95536.84;4910007;29;20222;-84
2022/06/27 07:10:38;;;;;;;1.58;0.80;;;;;;;18.40;96.14;95540.09;4898598;29;20293;-83
2022/06/27 07:13:04;;;;;;;2.13;0.80;;;;;;;18.66;95.53;95542.84;4900819;29;20265;-84
2022/06/27 07:15:30;;;;;;;0.50;0.50;;;;;;;18.54;95.25;95539.13;4909002;29;20186;-84
2022/06/27 07:17:55;;;;;;;1.13;0.70;;;;;;;18.84;92.63;95531.75;4917039;29;20671;-83
2022/06/27 07:20:22;;;;;;;0.60;0.60;;;;;;;18.95;93.89;95522.47;4918926;29;20573;-84
2022/06/27 07:22:48;;;;;;;3.03;0.90;;;;;;;19.24;93.63;95532.63;4895447;29;20194;-84
2022/06/27 07:25:14;;;;;;;1.60;0.75;;;;;;;19.39;90.35;95540.31;4901369;29;20187;-84
2022/06/27 07:27:40;;;;;;;1.67;0.60;;;;;;;19.37;89.32;95542.38;4896490;29;20240;-85
2022/06/27 07:30:09;;;;;;;0.90;0.50;;;;;;;19.09;90.87;95539.91;4935823;29;20219;-85
2022/06/27 07:32:35;;;;;;;1.65;0.50;;;;;;;19.33;89.19;95541.13;4919808;29;20303;-85
2022/06/27 07:35:01;;;;;;;0.80;0.80;;;;;;;19.34;89.41;95540.13;4928587;29;20185;-85
2022/06/27 07:37:27;;;;;;;0.50;0.50;;;;;;;19.30;90.36;95554.72;4906424;29;20179;-85
2022/06/27 07:39:53;;;;;;;1.92;0.65;;;;;;;19.17;91.03;95566.03;4901542;29;20618;-84
2022/06/27 07:42:19;;;;;;;1.50;0.70;;;;;;;19.13;91.34;95582.41;4893944;29;20183;-84
2022/06/27 07:44:44;;;;;;;5.95;0.80;;;;;;;18.95;92.50;95586.44;4925096;29;20190;-85
2022/06/27 07:47:10;;;;;;;1.02;0.68;;;;;;;18.83;93.22;95588.03;4908041;29;20210;-84
2022/06/27 07:49:35;;;;;;;0.80;0.65;;;;;;;18.79;94.71;95602.56;4922840;29;20210;-84
2022/06/27 07:52:00;;;;;;;1.63;0.60;;;;;;;18.67;94.91;95602.31;4901366;29;20210;-84
2022/06/27 07:54:27;;;;;;;1.67;0.80;;;;;;;18.79;93.33;95615.72;4891886;29;20206;-85
2022/06/27 07:56:53;;;;;;;1.75;0.63;;;;;;;18.61;93.84;95636.44;4900865;29;20364;-84
2022/06/27 07:59:19;;;;;;;1.17;1.08;;;;;;;18.36;95.26;95629.03;4905431;29;20260;-84
2022/06/27 08:01:44;;;;;;;2.08;1.00;;;;;;;18.35;96.08;95621.34;4919128;29;20273;-84
2022/06/27 08:04:12;;;;;;;2.22;1.08;;;;;;;18.17;98.36;95613.97;4935664;29;20335;-84
2022/06/27 08:06:37;;;;;;;1.85;1.02;;;;;;;18.29;98.00;95607.19;4888649;29;20217;-85
2022/06/27 08:09:07;;;;;;;1.17;0.95;;;;;;;18.49;97.99;95598.56;4887819;29;20186;-85
2022/06/27 08:11:37;;;;;;;1.33;1.23;;;;;;;18.71;96.40;95604.56;4902561;29;20187;-84
2022/06/27 08:14:05;;;;;;;2.40;1.10;;;;;;;18.95;95.06;95615.38;4898329;29;20820;-83
2022/06/27 08:16:32;;;;;;;3.83;1.00;;;;;;;19.25;93.59;95618.47;4892584;29;20183;-84
2022/06/27 08:18:57;;;;;;;1.30;1.00;;;;;;;19.34;92.50;95616.47;4905389;29;20183;-84
2022/06/27 08:21:25;;;;;;;2.25;1.15;;;;;;;19.34;92.09;95616.47;4889328;29;20220;-84
2022/06/27 08:23:52;;;;;;;1.63;1.20;;;;;;;19.56;92.08;95629.47;4910587;29;20227;-83
2022/06/27 08:26:18;;;;;;;1.95;1.15;;;;;;;19.29;91.66;95626.00;4900888;29;20281;-83
2022/06/27 08:28:44;;;;;;;1.45;1.10;;;;;;;19.35;91.67;95633.09;4899798;29;20684;-83
2022/06/27 08:31:12;;;;;;;2.05;1.30;;;;;;;19.20;91.87;95641.97;4890563;29;20210;-84
2022/06/27 08:33:39;;;;;;;1.67;1.10;;;;;;;19.12;92.10;95639.53;4886148;29;20206;-83
2022/06/27 08:36:05;;;;;;;2.45;1.80;;;;;;;19.11;91.16;95640.53;4909063;29;20277;-83
2022/06/27 08:38:32;;;;;;;1.63;1.52;;;;;;;18.73;93.30;95649.88;4896246;29;20206;-80
2022/06/27 08:40:57;;;;;;;2.90;1.75;;;;;;;18.83;94.23;95653.78;4918152;29;20216;-80
2022/06/27 08:43:24;;;;;;;2.22;2.03;;;;;;;18.64;95.00;95668.44;4903253;29;20187;-79
2022/06/27 08:45:51;;;;;;;2.42;2.22;;;;;;;18.58;95.00;95674.47;4902247;29;20186;-80
2022/06/27 08:48:17;;;;;;;7.60;2.45;;;;;;;18.52;95.93;95674.44;4905849;29;20205;-80
2022/06/27 08:50:48;;;;;;;6.90;2.72;;;;;;;18.44;96.86;95672.75;4923107;29;20254;-80
2022/06/27 08:53:15;;;;;;;3.00;2.80;;;;;;;18.37;96.88;95672.72;4930051;29;20209;-80
2022/06/27 08:55:46;;;;;;;3.13;2.90;;;;;;;18.45;96.56;95663.88;4917002;29;20183;-80
2022/06/27 08:58:13;;;;;;;3.85;3.15;;;;;;;18.48;96.02;95668.75;4925839;29;20264;-80
2022/06/27 09:00:41;;;;;;;3.22;3.03;;;;;;;18.77;93.89;95672.97;4892791;29;20245;-80
2022/06/27 09:03:07;;;;;;;3.17;2.72;;;;;;;18.70;94.18;95677.41;4915793;29;20178;-80
2022/06/27 09:05:34;;;;;;;3.40;3.20;;;;;;;18.69;94.15;95675.78;4899000;29;20194;-80
2022/06/27 09:08:05;;;;;;;3.33;3.03;;;;;;;18.71;94.08;95673.75;4926812;29;20195;-80
2022/06/27 09:10:39;;;;;;;3.33;3.00;;;;;;;18.79;96.17;95670.16;4900713;29;20640;-80
2022/06/27 09:13:11;;;;;;;2.97;2.70;;;;;;;18.74;94.33;95689.16;4913657;29;20761;-80
2022/06/27 09:15:46;;;;;;;3.28;2.83;;;;;;;18.82;94.32;95696.09;4914968;29;20284;-81
2022/06/27 09:18:13;;;;;;;3.60;3.30;;;;;;;18.90;94.37;95688.81;4931173;29;20733;-81
2022/06/27 09:20:49;;;;;;;3.45;3.15;;;;;;;18.66;93.05;95676.19;4932860;29;20857;-79
2022/06/27 09:23:53;;;;;;;4.05;3.10;;;;;;;19.00;92.76;95662.16;4934292;29;20181;-81
2022/06/27 09:26:22;;;;;;;3.40;3.10;;;;;;;19.22;91.53;95654.94;4884689;29;20202;-81
2022/06/27 09:28:54;;;;;;;3.40;2.97;;;;;;;19.40;90.14;95643.84;4866506;29;20255;-81
2022/06/27 09:31:30;;;;;;;3.63;3.33;;;;;;;19.56;90.40;95651.38;4876498;29;20214;-80
2022/06/27 09:34:21;;;;;;;3.58;2.97;;;;;;;20.29;86.79;95659.28;4866420;29;20730;-80
2022/06/27 09:36:48;;;;;;;3.97;3.33;;;;;;;20.63;84.29;95666.16;4863997;29;20290;-81
2022/06/27 09:39:29;;;;;;;3.40;3.15;;;;;;;21.23;81.75;95674.66;4851078;29;20656;-81
2022/06/27 09:42:02;;;;;;;4.38;3.40;;;;;;;21.19;81.60;95684.81;4890547;29;20620;-82
2022/06/27 09:44:38;;;;;;;4.10;3.40;;;;;;;21.54;79.58;95699.53;4872527;29;20194;-80
2022/06/27 09:47:04;;;;;;;3.60;3.30;;;;;;;21.48;78.99;95702.00;4896149;29;20194;-79
2022/06/27 09:49:35;;;;;;;3.40;3.15;;;;;;;21.14;78.94;95708.44;4866379;29;20227;-80
2022/06/27 09:52:04;;;;;;;3.72;3.30;;;;;;;20.93;80.85;95708.69;4855814;29;20211;-81
2022/06/27 09:54:30;;;;;;;3.88;3.40;;;;;;;20.83;82.81;95710.94;4869305;29;20839;-81
2022/06/27 09:56:57;;;;;;;3.80;3.03;;;;;;;21.03;79.35;95719.66;4879258;29;20232;-80
2022/06/27 09:59:23;;;;;;;3.08;2.80;;;;;;;21.07;79.02;95726.13;4864006;29;20328;-81
2022/06/27 10:01:49;;;;;;;2.70;2.50;;;;;;;21.45;78.12;95735.94;4889305;29;20222;-81
2022/06/27 10:04:14;;;;;;;3.63;3.17;;;;;;;21.28;77.68;95745.38;4915088;29;20634;-82
2022/06/27 10:06:41;;;;;;;3.53;2.50;;;;;;;21.40;76.01;95749.00;4916815;29;20202;-81
2022/06/27 10:09:08;;;;;;;2.60;2.40;;;;;;;21.17;77.25;95752.09;4900245;29;20186;-81
2022/06/27 10:11:35;;;;;;;2.78;2.20;;;;;;;20.62;78.61;95765.59;4905545;29;20622;-81
2022/06/27 10:14:15;;;;;;;6.10;2.47;;;;;;;20.26;80.03;95765.19;4896026;29;20253;-82
2022/06/27 10:16:56;;;;;;;2.63;2.42;;;;;;;20.21;81.04;95767.59;4907337;29;20200;-79
2022/06/27 10:19:25;;;;;;;2.75;2.33;;;;;;;20.16;82.39;95765.59;4911844;29;20209;-80
2022/06/27 10:21:51;;;;;;;2.53;2.33;;;;;;;20.41;81.14;95760.53;4884591;29;20179;-80
2022/06/27 10:24:26;;;;;;;3.40;2.30;;;;;;;20.56;80.93;95761.13;4911654;29;20206;-81
2022/06/27 10:26:55;;;;;;;2.50;2.30;;;;;;;21.03;78.45;95759.25;4912571;29;20182;-81
2022/06/27 10:29:27;;;;;;;2.47;1.90;;;;;;;21.76;76.72;95767.72;4912994;29;20206;-81
2022/06/27 10:31:53;;;;;;;1.80;1.63;;;;;;;21.77;73.06;95771.97;4908549;29;20562;-81
2022/06/27 10:34:18;;;;;;;1.70;1.60;;;;;;;21.78;75.17;95772.78;4909948;29;20200;-80
2022/06/27 10:36:43;;;;;;;1.70;1.60;;;;;;;21.93;73.46;95773.31;4891938;29;20201;-81
2022/06/27 10:39:19;;;;;;;2.42;1.67;;;;;;;21.60;72.57;95777.97;4909885;29;20606;-81
2022/06/27 10:41:44;;;;;;;1.73;1.45;;;;;;;21.61;73.59;95776.94;4898564;29;20289;-81
2022/06/27 10:44:30;;;;;;;2.53;1.58;;;;;;;21.33;74.29;95774.63;4886116;29;20284;-81
2022/06/27 10:46:55;;;;;;;3.35;1.90;;;;;;;20.89;76.59;95774.28;4913371;29;20339;-81
2022/06/27 10:49:21;;;;;;;2.63;2.05;;;;;;;20.30;78.39;95776.94;4900951;29;20301;-81
2022/06/27 10:51:46;;;;;;;3.80;2.10;;;;;;;20.24;80.11;95773.31;4912182;29;20196;-80
2022/06/27 10:54:12;;;;;;;2.22;2.03;;;;;;;19.96;80.46;95778.72;4924456;29;20265;-81
2022/06/27 10:56:37;;;;;;;3.22;1.90;;;;;;;19.99;81.66;95782.81;4918886;29;20186;-80
2022/06/27 10:59:12;;;;;;;2.33;2.13;;;;;;;19.88;82.78;95791.28;4936999;28;20213;-80
2022/06/27 11:01:38;;;;;;;2.45;2.20;;;;;;;19.92;83.05;95793.31;4950567;28;20196;-80
2022/06/27 11:04:03;;;;;;;3.15;2.00;;;;;;;19.96;83.63;95786.63;4928026;28;20190;-80
2022/06/27 11:06:29;;;;;;;2.67;2.20;;;;;;;20.29;82.76;95783.22;4927527;29;20194;-81
2022/06/27 11:08:55;;;;;;;2.42;2.28;;;;;;;20.59;80.00;95779.22;4891725;29;20193;-80
2022/06/27 11:11:28;;;;;;;2.65;2.45;;;;;;;20.24;80.53;95780.41;4905076;29;20210;-81
2022/06/27 11:13:54;;;;;;;3.40;2.60;;;;;;;20.14;82.18;95787.88;4916021;29;20683;-79
2022/06/27 11:16:30;;;;;;;4.68;3.00;;;;;;;19.90;83.12;95794.53;4918219;29;20190;-80
2022/06/27 11:19:00;;;;;;;4.97;2.50;;;;;;;19.72;81.91;95795.09;4899528;29;20193;-80
2022/06/27 11:21:28;;;;;;;3.20;2.63;;;;;;;19.47;83.45;95798.22;4900358;29;20594;-80
2022/06/27 11:24:04;;;;;;;7.05;2.90;;;;;;;19.24;83.99;95787.19;4887606;29;20254;-80
2022/06/27 11:26:32;;;;;;;4.20;2.40;;;;;;;19.32;83.74;95792.28;4901691;29;20558;-80
2022/06/27 11:32:10;;;;;;;2.92;2.60;;;;;;;19.17;84.88;95794.22;4907560;29;20262;-80